La Porsche — VY9305 — position and weather

sailwx.info

Track history (hours):
 
Tides and Currents Weather Stations Pressure Air Temp Water Temp Dewpoint Dewpoint Depression Visibility Wind Speed Wind Dir Waves Ship Positions

La Porsche

Last reported at 2016-Aug-24 21:32 UTC. Time now 2016-Aug-25 02:45 UTC.
Position N 50°43' W 127°29'.

Length 22 m; draft 2.9 m.

Type: Fishing. MMSI: 316001649.

Date/timePositionNaut miles runAvg speedWind from/ knotsBaromVisibWave heightAir tempDewpointWater temp
2016-Aug-24 21:32N 50°43' W 127°29'0 0.0
2016-Aug-24 20:31N 50°43' W 127°29'0 0.0
2016-Aug-23 01:13N 50°43' W 127°29'0 0.0
2016-Aug-22 17:22N 50°43' W 127°29'0 0.0
2016-Aug-22 16:33N 50°43' W 127°29'0 0.0
2016-Aug-22 10:17N 50°43' W 127°29'0 0.0
2016-Aug-22 09:32N 50°43' W 127°29'0 0.0
2016-Aug-22 08:24N 50°43' W 127°29'0 0.0
2016-Aug-22 07:31N 50°43' W 127°29'0 0.0
2016-Aug-22 06:30N 50°43' W 127°29'0 0.0
2016-Aug-21 08:33N 50°43' W 127°29'0 0.0
2016-Aug-21 07:12N 50°43' W 127°29'0 0.0
2016-Aug-20 19:32N 50°43' W 127°29'0 0.0
2016-Aug-20 18:18N 50°43' W 127°29'0 0.0
2016-Aug-20 17:31N 50°43' W 127°29'0 0.0
2016-Aug-19 21:12N 50°43' W 127°29'0 0.0
2016-Aug-19 20:28N 50°43' W 127°29'0 0.0
2016-Aug-19 19:33N 50°43' W 127°29'0 0.0
2016-Aug-18 21:03N 50°43' W 127°29'0 0.2
2016-Aug-18 19:33N 50°43' W 127°29'0 0.0
2016-Aug-18 18:33N 50°43' W 127°29'0 0.0
2016-Aug-18 17:33N 50°43' W 127°29'1 0.9
2016-Aug-18 16:10N 50°43' W 127°28'0 0.0
2016-Aug-18 15:33N 50°43' W 127°28'0 0.0
2016-Aug-18 13:30N 50°43' W 127°28'0 0.0
2016-Aug-18 12:32N 50°43' W 127°28'0 0.0
2016-Aug-18 11:33N 50°43' W 127°28'3 3.0
2016-Aug-18 10:33N 50°46' W 127°29'7 6.6
2016-Aug-18 09:33N 50°49' W 127°38'7 7.1
2016-Aug-18 08:33N 50°52' W 127°49'  
Track history (hours):
 
Tides and Currents Weather Stations Pressure Air Temp Water Temp Dewpoint Dewpoint Depression Visibility Wind Speed Wind Dir Waves Ship Positions

La Porsche

Last reported at 2016-Aug-24 21:32 UTC. Time now 2016-Aug-25 02:45 UTC.
Position N 50°43' W 127°29'.

Length 22 m; draft 2.9 m.

Type: Fishing. MMSI: 316001649.

Date/timePositionNaut miles runAvg speedWind from/ knotsBaromVisibWave heightAir tempDewpointWater temp
2016-Aug-24 21:32N 50°43' W 127°29'0 0.0
2016-Aug-24 20:31N 50°43' W 127°29'0 0.0
2016-Aug-23 01:13N 50°43' W 127°29'0 0.0
2016-Aug-22 17:22N 50°43' W 127°29'0 0.0
2016-Aug-22 16:33N 50°43' W 127°29'0 0.0
2016-Aug-22 10:17N 50°43' W 127°29'0 0.0
2016-Aug-22 09:32N 50°43' W 127°29'0 0.0
2016-Aug-22 08:24N 50°43' W 127°29'0 0.0
2016-Aug-22 07:31N 50°43' W 127°29'0 0.0
2016-Aug-22 06:30N 50°43' W 127°29'0 0.0
2016-Aug-21 08:33N 50°43' W 127°29'0 0.0
2016-Aug-21 07:12N 50°43' W 127°29'0 0.0
2016-Aug-20 19:32N 50°43' W 127°29'0 0.0
2016-Aug-20 18:18N 50°43' W 127°29'0 0.0
2016-Aug-20 17:31N 50°43' W 127°29'0 0.0
2016-Aug-19 21:12N 50°43' W 127°29'0 0.0
2016-Aug-19 20:28N 50°43' W 127°29'0 0.0
2016-Aug-19 19:33N 50°43' W 127°29'0 0.0
2016-Aug-18 21:03N 50°43' W 127°29'0 0.2
2016-Aug-18 19:33N 50°43' W 127°29'0 0.0
2016-Aug-18 18:33N 50°43' W 127°29'0 0.0
2016-Aug-18 17:33N 50°43' W 127°29'1 0.9
2016-Aug-18 16:10N 50°43' W 127°28'0 0.0
2016-Aug-18 15:33N 50°43' W 127°28'0 0.0
2016-Aug-18 13:30N 50°43' W 127°28'0 0.0
2016-Aug-18 12:32N 50°43' W 127°28'0 0.0
2016-Aug-18 11:33N 50°43' W 127°28'3 3.0
2016-Aug-18 10:33N 50°46' W 127°29'7 6.6
2016-Aug-18 09:33N 50°49' W 127°38'7 7.1
2016-Aug-18 08:33N 50°52' W 127°49'  

Dump ship's entire track history